sensor_id;sensor_type;location;lat;lon;timestamp;temperature;humidity
21267;DHT22;10791;53.108;18.326;2023-02-04T00:01:59;-0.60;99.90
21267;DHT22;10791;53.108;18.326;2023-02-04T00:07:05;-0.50;99.90
21267;DHT22;10791;53.108;18.326;2023-02-04T00:12:09;-0.50;99.90
21267;DHT22;10791;53.108;18.326;2023-02-04T00:17:12;-0.40;99.90
21267;DHT22;10791;53.108;18.326;2023-02-04T00:22:16;-0.50;99.90
21267;DHT22;10791;53.108;18.326;2023-02-04T00:27:22;-0.50;99.90
21267;DHT22;10791;53.108;18.326;2023-02-04T00:32:31;-0.40;99.90
21267;DHT22;10791;53.108;18.326;2023-02-04T00:37:57;-0.50;99.90
21267;DHT22;10791;53.108;18.326;2023-02-04T00:43:00;-0.50;99.90
21267;DHT22;10791;53.108;18.326;2023-02-04T00:48:04;-0.50;99.90
21267;DHT22;10791;53.108;18.326;2023-02-04T00:53:07;-0.60;99.90
21267;DHT22;10791;53.108;18.326;2023-02-04T00:58:12;-0.50;99.90
21267;DHT22;10791;53.108;18.326;2023-02-04T01:03:15;-0.50;99.90
21267;DHT22;10791;53.108;18.326;2023-02-04T01:08:19;-0.60;99.90
21267;DHT22;10791;53.108;18.326;2023-02-04T01:13:22;-0.60;99.90
21267;DHT22;10791;53.108;18.326;2023-02-04T01:18:26;-0.70;99.90
21267;DHT22;10791;53.108;18.326;2023-02-04T01:23:29;-0.70;99.90
21267;DHT22;10791;53.108;18.326;2023-02-04T01:28:33;-0.70;99.90
21267;DHT22;10791;53.108;18.326;2023-02-04T01:33:36;-0.70;99.90
21267;DHT22;10791;53.108;18.326;2023-02-04T01:38:40;-0.80;99.90
21267;DHT22;10791;53.108;18.326;2023-02-04T01:43:45;-0.80;99.90
21267;DHT22;10791;53.108;18.326;2023-02-04T01:48:49;-0.80;99.90
21267;DHT22;10791;53.108;18.326;2023-02-04T01:53:53;-0.90;99.90
21267;DHT22;10791;53.108;18.326;2023-02-04T01:58:57;-1.00;99.90
21267;DHT22;10791;53.108;18.326;2023-02-04T02:04:01;-1.00;99.90
21267;DHT22;10791;53.108;18.326;2023-02-04T02:09:04;-1.00;99.90
21267;DHT22;10791;53.108;18.326;2023-02-04T02:14:08;-1.10;99.90
21267;DHT22;10791;53.108;18.326;2023-02-04T02:19:15;-1.10;99.90
21267;DHT22;10791;53.108;18.326;2023-02-04T02:24:27;-1.10;99.90
21267;DHT22;10791;53.108;18.326;2023-02-04T02:29:31;-1.10;99.90
21267;DHT22;10791;53.108;18.326;2023-02-04T02:34:34;-1.20;99.90
21267;DHT22;10791;53.108;18.326;2023-02-04T02:39:39;-1.20;99.90
21267;DHT22;10791;53.108;18.326;2023-02-04T02:44:44;-1.20;99.90
21267;DHT22;10791;53.108;18.326;2023-02-04T02:49:51;-1.20;99.90
21267;DHT22;10791;53.108;18.326;2023-02-04T02:54:55;-1.20;99.90
21267;DHT22;10791;53.108;18.326;2023-02-04T02:59:59;-1.10;99.90
21267;DHT22;10791;53.108;18.326;2023-02-04T03:05:02;-1.10;99.90
21267;DHT22;10791;53.108;18.326;2023-02-04T03:10:06;-1.10;99.90
21267;DHT22;10791;53.108;18.326;2023-02-04T03:15:09;-1.20;99.90
21267;DHT22;10791;53.108;18.326;2023-02-04T03:20:13;-1.20;99.90
21267;DHT22;10791;53.108;18.326;2023-02-04T03:25:17;-1.20;99.90
21267;DHT22;10791;53.108;18.326;2023-02-04T03:30:22;-1.10;99.90
21267;DHT22;10791;53.108;18.326;2023-02-04T03:35:26;-1.10;99.90
21267;DHT22;10791;53.108;18.326;2023-02-04T03:40:29;-1.00;99.90
21267;DHT22;10791;53.108;18.326;2023-02-04T03:45:33;-1.00;99.90
21267;DHT22;10791;53.108;18.326;2023-02-04T03:50:47;-1.10;99.90
21267;DHT22;10791;53.108;18.326;2023-02-04T03:55:50;-1.20;99.90
21267;DHT22;10791;53.108;18.326;2023-02-04T04:00:54;-1.40;99.90
21267;DHT22;10791;53.108;18.326;2023-02-04T04:05:57;-1.40;99.90
21267;DHT22;10791;53.108;18.326;2023-02-04T04:11:01;-1.50;99.90
21267;DHT22;10791;53.108;18.326;2023-02-04T04:16:05;-1.60;99.90
21267;DHT22;10791;53.108;18.326;2023-02-04T04:21:08;-1.60;99.90
21267;DHT22;10791;53.108;18.326;2023-02-04T04:26:12;-1.70;99.90
21267;DHT22;10791;53.108;18.326;2023-02-04T04:31:16;-1.70;99.90
21267;DHT22;10791;53.108;18.326;2023-02-04T04:36:19;-1.80;99.90
21267;DHT22;10791;53.108;18.326;2023-02-04T04:41:22;-1.90;99.90
21267;DHT22;10791;53.108;18.326;2023-02-04T04:46:25;-1.90;99.90
21267;DHT22;10791;53.108;18.326;2023-02-04T04:51:29;-1.70;99.90
21267;DHT22;10791;53.108;18.326;2023-02-04T04:56:34;-1.70;99.90
21267;DHT22;10791;53.108;18.326;2023-02-04T05:01:38;-1.60;99.90
21267;DHT22;10791;53.108;18.326;2023-02-04T05:06:42;-1.50;99.90
21267;DHT22;10791;53.108;18.326;2023-02-04T05:11:45;-1.50;99.90
21267;DHT22;10791;53.108;18.326;2023-02-04T05:16:50;-1.40;99.90
21267;DHT22;10791;53.108;18.326;2023-02-04T05:21:53;-1.30;99.90
21267;DHT22;10791;53.108;18.326;2023-02-04T05:26:57;-1.20;99.90
21267;DHT22;10791;53.108;18.326;2023-02-04T05:32:00;-1.10;99.90
21267;DHT22;10791;53.108;18.326;2023-02-04T05:37:04;-1.10;99.90
21267;DHT22;10791;53.108;18.326;2023-02-04T05:42:07;-1.00;99.90
21267;DHT22;10791;53.108;18.326;2023-02-04T05:47:11;-1.00;99.90
21267;DHT22;10791;53.108;18.326;2023-02-04T05:52:14;-0.90;99.90
21267;DHT22;10791;53.108;18.326;2023-02-04T05:57:18;-0.90;99.90
21267;DHT22;10791;53.108;18.326;2023-02-04T06:02:22;-0.80;99.90
21267;DHT22;10791;53.108;18.326;2023-02-04T06:07:25;-0.80;99.90
21267;DHT22;10791;53.108;18.326;2023-02-04T06:12:28;-0.80;99.90
21267;DHT22;10791;53.108;18.326;2023-02-04T06:17:32;-0.80;99.90
21267;DHT22;10791;53.108;18.326;2023-02-04T06:22:35;-0.90;99.90
21267;DHT22;10791;53.108;18.326;2023-02-04T06:27:39;-0.90;99.90
21267;DHT22;10791;53.108;18.326;2023-02-04T06:32:42;-0.90;99.90
21267;DHT22;10791;53.108;18.326;2023-02-04T06:37:46;-0.80;99.90
21267;DHT22;10791;53.108;18.326;2023-02-04T06:42:49;-0.70;99.90
21267;DHT22;10791;53.108;18.326;2023-02-04T06:47:53;-0.60;99.90
21267;DHT22;10791;53.108;18.326;2023-02-04T06:52:56;-0.50;99.90
21267;DHT22;10791;53.108;18.326;2023-02-04T06:57:59;-0.50;99.90
21267;DHT22;10791;53.108;18.326;2023-02-04T07:03:03;-0.50;99.90
21267;DHT22;10791;53.108;18.326;2023-02-04T07:08:06;-0.50;99.90
21267;DHT22;10791;53.108;18.326;2023-02-04T07:13:09;-0.50;99.90
21267;DHT22;10791;53.108;18.326;2023-02-04T07:18:13;-0.40;99.90
21267;DHT22;10791;53.108;18.326;2023-02-04T07:23:16;-0.40;99.90
21267;DHT22;10791;53.108;18.326;2023-02-04T07:28:20;-0.30;99.90
21267;DHT22;10791;53.108;18.326;2023-02-04T07:33:23;-0.20;99.90
21267;DHT22;10791;53.108;18.326;2023-02-04T07:38:27;-0.20;99.90
21267;DHT22;10791;53.108;18.326;2023-02-04T07:43:30;-0.30;99.90
21267;DHT22;10791;53.108;18.326;2023-02-04T07:48:33;-0.30;99.90
21267;DHT22;10791;53.108;18.326;2023-02-04T07:53:37;-0.40;99.90
21267;DHT22;10791;53.108;18.326;2023-02-04T07:58:40;-0.60;99.90
21267;DHT22;10791;53.108;18.326;2023-02-04T08:03:44;-0.60;99.90
21267;DHT22;10791;53.108;18.326;2023-02-04T08:08:47;-0.70;99.90
21267;DHT22;10791;53.108;18.326;2023-02-04T08:13:50;-0.80;99.90
21267;DHT22;10791;53.108;18.326;2023-02-04T08:18:53;-0.70;99.90
21267;DHT22;10791;53.108;18.326;2023-02-04T08:23:57;-0.60;99.90
21267;DHT22;10791;53.108;18.326;2023-02-04T08:29:00;-0.40;99.90
21267;DHT22;10791;53.108;18.326;2023-02-04T08:34:05;-0.30;99.90
21267;DHT22;10791;53.108;18.326;2023-02-04T08:39:09;-0.20;99.90
21267;DHT22;10791;53.108;18.326;2023-02-04T08:44:12;-0.20;99.90
21267;DHT22;10791;53.108;18.326;2023-02-04T08:49:16;-0.10;99.90
21267;DHT22;10791;53.108;18.326;2023-02-04T08:54:20;0.10;99.90
21267;DHT22;10791;53.108;18.326;2023-02-04T08:59:23;0.10;99.90
21267;DHT22;10791;53.108;18.326;2023-02-04T09:04:28;0.10;99.90
21267;DHT22;10791;53.108;18.326;2023-02-04T09:09:32;0.10;99.90
21267;DHT22;10791;53.108;18.326;2023-02-04T09:14:35;0.10;99.90
21267;DHT22;10791;53.108;18.326;2023-02-04T09:19:38;0.10;99.90
21267;DHT22;10791;53.108;18.326;2023-02-04T09:24:42;0.10;99.90
21267;DHT22;10791;53.108;18.326;2023-02-04T09:29:45;0.20;99.90
21267;DHT22;10791;53.108;18.326;2023-02-04T09:34:51;0.30;99.90
21267;DHT22;10791;53.108;18.326;2023-02-04T09:39:55;0.40;99.90
21267;DHT22;10791;53.108;18.326;2023-02-04T09:45:01;0.60;99.90
21267;DHT22;10791;53.108;18.326;2023-02-04T09:50:12;0.70;99.90
21267;DHT22;10791;53.108;18.326;2023-02-04T09:55:19;0.80;99.90
21267;DHT22;10791;53.108;18.326;2023-02-04T10:00:25;0.90;99.90
21267;DHT22;10791;53.108;18.326;2023-02-04T10:05:31;1.00;99.90
21267;DHT22;10791;53.108;18.326;2023-02-04T10:10:36;1.00;99.90
21267;DHT22;10791;53.108;18.326;2023-02-04T10:15:39;1.00;99.90
21267;DHT22;10791;53.108;18.326;2023-02-04T10:20:43;1.10;99.90
21267;DHT22;10791;53.108;18.326;2023-02-04T10:25:46;1.30;99.90
21267;DHT22;10791;53.108;18.326;2023-02-04T10:30:49;1.20;99.90
21267;DHT22;10791;53.108;18.326;2023-02-04T10:35:55;1.40;99.90
21267;DHT22;10791;53.108;18.326;2023-02-04T10:41:03;1.50;99.90
21267;DHT22;10791;53.108;18.326;2023-02-04T11:00:46;1.50;99.90
21267;DHT22;10791;53.108;18.326;2023-02-04T11:05:51;1.40;99.90
21267;DHT22;10791;53.108;18.326;2023-02-04T11:10:58;1.40;99.90
21267;DHT22;10791;53.108;18.326;2023-02-04T11:26:40;1.40;99.90
21267;DHT22;10791;53.108;18.326;2023-02-04T11:42:20;1.40;99.90
21267;DHT22;10791;53.108;18.326;2023-02-04T11:47:35;1.30;99.90
21267;DHT22;10791;53.108;18.326;2023-02-04T11:52:39;1.20;99.90
21267;DHT22;10791;53.108;18.326;2023-02-04T11:57:43;1.20;99.90
21267;DHT22;10791;53.108;18.326;2023-02-04T12:02:49;1.40;99.90
21267;DHT22;10791;53.108;18.326;2023-02-04T12:07:54;1.50;99.90
21267;DHT22;10791;53.108;18.326;2023-02-04T12:12:57;1.50;99.90
21267;DHT22;10791;53.108;18.326;2023-02-04T12:18:07;1.40;99.90
21267;DHT22;10791;53.108;18.326;2023-02-04T12:23:11;1.40;99.90
21267;DHT22;10791;53.108;18.326;2023-02-04T12:28:17;1.30;99.90
21267;DHT22;10791;53.108;18.326;2023-02-04T12:33:21;1.40;99.90
21267;DHT22;10791;53.108;18.326;2023-02-04T12:38:27;1.30;99.90
21267;DHT22;10791;53.108;18.326;2023-02-04T12:43:32;1.30;99.90
21267;DHT22;10791;53.108;18.326;2023-02-04T12:48:36;1.40;99.90
21267;DHT22;10791;53.108;18.326;2023-02-04T12:53:43;1.50;99.90
21267;DHT22;10791;53.108;18.326;2023-02-04T12:58:46;1.50;99.90
21267;DHT22;10791;53.108;18.326;2023-02-04T13:03:50;1.60;99.90
21267;DHT22;10791;53.108;18.326;2023-02-04T13:08:53;1.60;99.90
21267;DHT22;10791;53.108;18.326;2023-02-04T13:14:00;1.50;99.90
21267;DHT22;10791;53.108;18.326;2023-02-04T13:19:19;1.40;99.90
21267;DHT22;10791;53.108;18.326;2023-02-04T13:24:42;1.30;99.90
21267;DHT22;10791;53.108;18.326;2023-02-04T13:29:48;1.30;99.90
21267;DHT22;10791;53.108;18.326;2023-02-04T13:34:52;1.20;99.90
21267;DHT22;10791;53.108;18.326;2023-02-04T13:39:55;1.00;99.90
21267;DHT22;10791;53.108;18.326;2023-02-04T13:45:02;0.90;99.90
21267;DHT22;10791;53.108;18.326;2023-02-04T13:50:09;0.60;99.90
21267;DHT22;10791;53.108;18.326;2023-02-04T13:55:16;0.30;99.90
21267;DHT22;10791;53.108;18.326;2023-02-04T14:00:21;0.20;99.90
21267;DHT22;10791;53.108;18.326;2023-02-04T14:05:25;0.20;99.90
21267;DHT22;10791;53.108;18.326;2023-02-04T14:10:28;0.40;99.90
21267;DHT22;10791;53.108;18.326;2023-02-04T14:15:32;0.90;99.90
21267;DHT22;10791;53.108;18.326;2023-02-04T14:20:45;1.10;99.90
21267;DHT22;10791;53.108;18.326;2023-02-04T14:25:48;1.20;99.90
21267;DHT22;10791;53.108;18.326;2023-02-04T14:30:52;1.20;99.90
21267;DHT22;10791;53.108;18.326;2023-02-04T14:35:57;0.90;99.90
21267;DHT22;10791;53.108;18.326;2023-02-04T14:41:01;0.60;99.90
21267;DHT22;10791;53.108;18.326;2023-02-04T14:46:04;0.10;99.90
21267;DHT22;10791;53.108;18.326;2023-02-04T14:51:08;-0.30;99.90
21267;DHT22;10791;53.108;18.326;2023-02-04T14:56:11;-0.40;99.90
21267;DHT22;10791;53.108;18.326;2023-02-04T15:01:16;-0.40;99.90
21267;DHT22;10791;53.108;18.326;2023-02-04T15:06:22;-0.50;99.90
21267;DHT22;10791;53.108;18.326;2023-02-04T15:11:25;-0.60;99.90
21267;DHT22;10791;53.108;18.326;2023-02-04T15:16:28;-0.70;99.90
21267;DHT22;10791;53.108;18.326;2023-02-04T15:21:32;-0.80;99.90
21267;DHT22;10791;53.108;18.326;2023-02-04T15:26:35;-0.90;99.90
21267;DHT22;10791;53.108;18.326;2023-02-04T15:31:39;-1.00;99.90
21267;DHT22;10791;53.108;18.326;2023-02-04T15:36:43;-1.10;99.90
21267;DHT22;10791;53.108;18.326;2023-02-04T15:41:46;-1.10;99.90
21267;DHT22;10791;53.108;18.326;2023-02-04T15:46:51;-1.20;99.90
21267;DHT22;10791;53.108;18.326;2023-02-04T15:51:56;-1.30;99.90
21267;DHT22;10791;53.108;18.326;2023-02-04T15:57:00;-1.40;99.90
21267;DHT22;10791;53.108;18.326;2023-02-04T16:02:04;-1.50;99.90
21267;DHT22;10791;53.108;18.326;2023-02-04T16:07:07;-1.50;99.90
21267;DHT22;10791;53.108;18.326;2023-02-04T16:12:12;-1.50;99.90
21267;DHT22;10791;53.108;18.326;2023-02-04T16:17:16;-1.40;99.90
21267;DHT22;10791;53.108;18.326;2023-02-04T16:22:20;-1.50;99.90
21267;DHT22;10791;53.108;18.326;2023-02-04T16:27:24;-1.50;99.90
21267;DHT22;10791;53.108;18.326;2023-02-04T16:32:31;-1.50;99.90
21267;DHT22;10791;53.108;18.326;2023-02-04T16:37:35;-1.40;99.90
21267;DHT22;10791;53.108;18.326;2023-02-04T16:42:40;-1.20;99.90
21267;DHT22;10791;53.108;18.326;2023-02-04T16:47:45;-1.10;99.90
21267;DHT22;10791;53.108;18.326;2023-02-04T16:52:48;-1.10;99.90
21267;DHT22;10791;53.108;18.326;2023-02-04T16:57:52;-1.00;99.90
21267;DHT22;10791;53.108;18.326;2023-02-04T17:02:56;-1.00;99.90
21267;DHT22;10791;53.108;18.326;2023-02-04T17:07:59;-1.00;99.90
21267;DHT22;10791;53.108;18.326;2023-02-04T17:13:03;-1.00;99.90
21267;DHT22;10791;53.108;18.326;2023-02-04T17:18:08;-1.00;99.90
21267;DHT22;10791;53.108;18.326;2023-02-04T17:23:11;-0.90;99.90
21267;DHT22;10791;53.108;18.326;2023-02-04T17:28:16;-0.90;99.90
21267;DHT22;10791;53.108;18.326;2023-02-04T17:33:20;-0.90;99.90
21267;DHT22;10791;53.108;18.326;2023-02-04T17:38:24;-0.90;99.90
21267;DHT22;10791;53.108;18.326;2023-02-04T17:43:30;-1.00;99.90
21267;DHT22;10791;53.108;18.326;2023-02-04T17:48:35;-0.90;99.90
21267;DHT22;10791;53.108;18.326;2023-02-04T17:53:40;-0.90;99.90
21267;DHT22;10791;53.108;18.326;2023-02-04T17:58:45;-0.90;99.90
21267;DHT22;10791;53.108;18.326;2023-02-04T18:03:50;-1.00;99.90
21267;DHT22;10791;53.108;18.326;2023-02-04T18:08:54;-1.00;99.90
21267;DHT22;10791;53.108;18.326;2023-02-04T18:14:25;-0.90;99.90
21267;DHT22;10791;53.108;18.326;2023-02-04T18:19:34;-0.90;99.90
21267;DHT22;10791;53.108;18.326;2023-02-04T18:24:41;-0.90;99.90
21267;DHT22;10791;53.108;18.326;2023-02-04T18:29:52;-0.90;99.90
21267;DHT22;10791;53.108;18.326;2023-02-04T18:34:59;-1.00;99.90
21267;DHT22;10791;53.108;18.326;2023-02-04T18:45:25;-1.10;99.90
21267;DHT22;10791;53.108;18.326;2023-02-04T18:50:34;-1.10;99.90
21267;DHT22;10791;53.108;18.326;2023-02-04T18:55:50;-1.10;99.90
21267;DHT22;10791;53.108;18.326;2023-02-04T19:00:59;-1.10;99.90
21267;DHT22;10791;53.108;18.326;2023-02-04T19:06:22;-1.00;99.90
21267;DHT22;10791;53.108;18.326;2023-02-04T19:11:36;-1.00;99.90
21267;DHT22;10791;53.108;18.326;2023-02-04T19:16:41;-1.00;99.90
21267;DHT22;10791;53.108;18.326;2023-02-04T19:21:49;-1.10;99.90
21267;DHT22;10791;53.108;18.326;2023-02-04T19:26:58;-1.10;99.90
21267;DHT22;10791;53.108;18.326;2023-02-04T19:32:22;-1.10;99.90
21267;DHT22;10791;53.108;18.326;2023-02-04T19:37:37;-1.20;99.90
21267;DHT22;10791;53.108;18.326;2023-02-04T19:42:45;-1.20;99.90
21267;DHT22;10791;53.108;18.326;2023-02-04T19:47:55;-1.20;99.90
21267;DHT22;10791;53.108;18.326;2023-02-04T19:58:27;-1.30;99.90
21267;DHT22;10791;53.108;18.326;2023-02-04T20:19:26;-1.40;99.90
21267;DHT22;10791;53.108;18.326;2023-02-04T20:24:38;-1.40;99.90
21267;DHT22;10791;53.108;18.326;2023-02-04T20:29:43;-1.50;99.90
21267;DHT22;10791;53.108;18.326;2023-02-04T20:40:34;-1.50;99.90
21267;DHT22;10791;53.108;18.326;2023-02-04T20:46:01;-1.50;99.90
21267;DHT22;10791;53.108;18.326;2023-02-04T20:51:21;-1.50;99.90
21267;DHT22;10791;53.108;18.326;2023-02-04T20:56:31;-1.50;99.90
21267;DHT22;10791;53.108;18.326;2023-02-04T21:01:44;-1.50;99.90
21267;DHT22;10791;53.108;18.326;2023-02-04T21:06:54;-1.50;99.90
21267;DHT22;10791;53.108;18.326;2023-02-04T21:12:00;-1.60;99.90
21267;DHT22;10791;53.108;18.326;2023-02-04T21:17:04;-1.60;99.90
21267;DHT22;10791;53.108;18.326;2023-02-04T21:22:11;-1.70;99.90
21267;DHT22;10791;53.108;18.326;2023-02-04T21:27:15;-1.90;99.90
21267;DHT22;10791;53.108;18.326;2023-02-04T21:32:24;-2.00;99.90
21267;DHT22;10791;53.108;18.326;2023-02-04T21:37:30;-2.10;99.90
21267;DHT22;10791;53.108;18.326;2023-02-04T21:42:33;-2.10;99.90
21267;DHT22;10791;53.108;18.326;2023-02-04T21:47:38;-2.10;99.90
21267;DHT22;10791;53.108;18.326;2023-02-04T21:52:42;-2.10;99.90
21267;DHT22;10791;53.108;18.326;2023-02-04T21:57:46;-2.10;99.90
21267;DHT22;10791;53.108;18.326;2023-02-04T22:02:52;-2.20;99.90
21267;DHT22;10791;53.108;18.326;2023-02-04T22:08:05;-2.20;99.90
21267;DHT22;10791;53.108;18.326;2023-02-04T22:13:09;-2.20;99.90
21267;DHT22;10791;53.108;18.326;2023-02-04T22:18:13;-2.30;99.90
21267;DHT22;10791;53.108;18.326;2023-02-04T22:23:17;-2.30;99.90
21267;DHT22;10791;53.108;18.326;2023-02-04T22:28:20;-2.40;99.90
21267;DHT22;10791;53.108;18.326;2023-02-04T22:33:24;-2.40;99.90
21267;DHT22;10791;53.108;18.326;2023-02-04T22:38:27;-2.60;99.90
21267;DHT22;10791;53.108;18.326;2023-02-04T22:43:30;-2.70;99.90
21267;DHT22;10791;53.108;18.326;2023-02-04T22:48:33;-2.90;99.90
21267;DHT22;10791;53.108;18.326;2023-02-04T22:53:37;-3.00;99.90
21267;DHT22;10791;53.108;18.326;2023-02-04T22:58:40;-3.20;99.90
21267;DHT22;10791;53.108;18.326;2023-02-04T23:03:43;-3.40;99.90
21267;DHT22;10791;53.108;18.326;2023-02-04T23:08:47;-3.70;99.90
21267;DHT22;10791;53.108;18.326;2023-02-04T23:13:50;-3.90;99.90
21267;DHT22;10791;53.108;18.326;2023-02-04T23:18:54;-4.00;99.90
21267;DHT22;10791;53.108;18.326;2023-02-04T23:23:58;-4.10;99.90
21267;DHT22;10791;53.108;18.326;2023-02-04T23:29:01;-4.10;99.90
21267;DHT22;10791;53.108;18.326;2023-02-04T23:34:04;-4.30;99.90
21267;DHT22;10791;53.108;18.326;2023-02-04T23:39:08;-4.40;99.90
21267;DHT22;10791;53.108;18.326;2023-02-04T23:44:12;-4.60;99.90
21267;DHT22;10791;53.108;18.326;2023-02-04T23:49:15;-4.80;99.90
21267;DHT22;10791;53.108;18.326;2023-02-04T23:54:19;-4.90;99.90
21267;DHT22;10791;53.108;18.326;2023-02-04T23:59:22;-4.90;99.90
